Time;durP1;ratioP1;P1;durP2;ratioP2;P2;SDS_P1;SDS_P2;PMS_P1;PMS_P2;Temp;Humidity;BMP_temperature;BMP_pressure;BME280_temperature;BME280_humidity;BME280_pressure;Samples;Min_cycle;Max_cycle;Signal;HPM_P1;HPM_P2
2024/01/16 00:00:31;;;;;;;;;;;;;;;;;;5042253;28;20290;-73
2024/01/16 00:02:56;;;;;;;;;;;;;;;;;;5027507;28;20293;-73
2024/01/16 00:05:21;;;;;;;;;;;;;;;;;;5025988;28;20263;-73
2024/01/16 00:07:46;;;;;;;;;;;;;;;;;;5027395;28;19917;-73
2024/01/16 00:10:11;;;;;;;;;;;;;;;;;;5033211;28;19920;-73
2024/01/16 00:12:37;;;;;;;;;;;;;;;;;;5027451;28;20306;-73
2024/01/16 00:15:02;;;;;;;;;;;;;;;;;;5027260;28;20003;-73
2024/01/16 00:17:27;;;;;;;;;;;;;;;;;;5034967;28;20286;-73
2024/01/16 00:19:52;;;;;;;;;;;;;;;;;;5027592;28;19917;-73
2024/01/16 00:22:17;;;;;;;;;;;;;;;;;;5024827;28;20147;-74
2024/01/16 00:24:42;;;;;;;;;;;;;;;;;;5031979;28;19974;-73
2024/01/16 00:27:07;;;;;;;;;;;;;;;;;;5030248;28;19917;-73
2024/01/16 00:29:32;;;;;;;;;;;;;;;;;;5034896;28;19952;-73
2024/01/16 00:31:57;;;;;;;;;;;;;;;;;;5042284;28;20298;-73
2024/01/16 00:34:23;;;;;;;;;;;;;;;;;;5034825;28;19963;-73
2024/01/16 00:36:48;;;;;;;;;;;;;;;;;;5040504;28;19960;-73
2024/01/16 00:39:13;;;;;;;;;;;;;;;;;;5032042;28;20362;-73
2024/01/16 00:41:38;;;;;;;;;;;;;;;;;;5036969;28;19913;-73
2024/01/16 00:44:03;;;;;;;;;;;;;;;;;;5029969;28;19981;-73
2024/01/16 00:46:29;;;;;;;;;;;;;;;;;;5041534;28;19913;-73
2024/01/16 00:48:54;;;;;;;;;;;;;;;;;;5032709;28;19999;-73
2024/01/16 00:51:19;;;;;;;;;;;;;;;;;;5046712;28;20143;-73
2024/01/16 00:53:44;;;;;;;;;;;;;;;;;;5038281;28;20184;-73
2024/01/16 00:56:09;;;;;;;;;;;;;;;;;;5038821;28;20345;-73
2024/01/16 00:58:34;;;;;;;;;;;;;;;;;;5029230;28;19916;-73
2024/01/16 01:01:00;;;;;;;;;;;;;;;;;;5029384;28;19924;-74
2024/01/16 01:03:25;;;;;;;;;;;;;;;;;;5038551;28;19912;-73
2024/01/16 01:05:50;;;;;;;;;;;;;;;;;;5048543;28;19952;-73
2024/01/16 01:08:15;;;;;;;;;;;;;;;;;;5031324;28;20012;-73
2024/01/16 01:10:40;;;;;;;;;;;;;;;;;;5040215;28;20373;-73
2024/01/16 01:13:05;;;;;;;;;;;;;;;;;;5032862;28;19917;-73
2024/01/16 01:15:30;;;;;;;;;;;;;;;;;;5039199;28;19995;-73
2024/01/16 01:17:55;;;;;;;;;;;;;;;;;;5042515;28;19917;-73
2024/01/16 01:20:21;;;;;;;;;;;;;;;;;;5037287;28;19967;-73
2024/01/16 01:22:46;;;;;;;;;;;;;;;;;;5035650;28;19916;-73
2024/01/16 01:25:11;;;;;;;;;;;;;;;;;;5021718;28;19914;-73
2024/01/16 01:27:36;;;;;;;;;;;;;;;;;;5040600;28;19951;-73
2024/01/16 01:30:01;;;;;;;;;;;;;;;;;;5040068;28;20116;-73
2024/01/16 01:32:26;;;;;;;;;;;;;;;;;;5039964;28;20157;-73
2024/01/16 01:34:52;;;;;;;;;;;;;;;;;;5032282;28;20286;-73
2024/01/16 01:37:17;;;;;;;;;;;;;;;;;;5039775;28;19913;-73
2024/01/16 01:39:42;;;;;;;;;;;;;;;;;;5034305;28;20370;-73
2024/01/16 01:42:07;;;;;;;;;;;;;;;;;;5042743;28;20384;-73
2024/01/16 01:44:32;;;;;;;;;;;;;;;;;;5042841;28;20340;-73
2024/01/16 01:46:57;;;;;;;;;;;;;;;;;;5051083;28;19913;-73
2024/01/16 01:49:22;;;;;;;;;;;;;;;;;;5034067;28;19948;-73
2024/01/16 01:51:47;;;;;;;;;;;;;;;;;;5043191;28;19999;-73
2024/01/16 01:54:12;;;;;;;;;;;;;;;;;;5039229;28;20361;-73
2024/01/16 01:56:38;;;;;;;;;;;;;;;;;;5051290;28;19916;-72
2024/01/16 01:59:03;;;;;;;;;;;;;;;;;;5036119;28;20282;-73
2024/01/16 02:01:28;;;;;;;;;;;;;;;;;;5032813;28;20396;-73
2024/01/16 02:03:53;;;;;;;;;;;;;;;;;;5037607;28;20019;-73
2024/01/16 02:06:18;;;;;;;;;;;;;;;;;;5039190;28;19912;-73
2024/01/16 02:08:43;;;;;;;;;;;;;;;;;;5032768;28;20028;-73
2024/01/16 02:11:08;;;;;;;;;;;;;;;;;;5040919;28;19967;-73
2024/01/16 02:13:33;;;;;;;;;;;;;;;;;;5039456;28;19990;-73
2024/01/16 02:15:59;;;;;;;;;;;;;;;;;;5034444;28;20424;-73
2024/01/16 02:18:24;;;;;;;;;;;;;;;;;;5031888;28;20012;-73
2024/01/16 02:20:49;;;;;;;;;;;;;;;;;;5051413;28;19913;-72
2024/01/16 02:23:14;;;;;;;;;;;;;;;;;;5051725;28;19959;-72
2024/01/16 02:25:39;;;;;;;;;;;;;;;;;;5041583;28;19920;-73
2024/01/16 02:28:04;;;;;;;;;;;;;;;;;;5033112;28;19952;-73
2024/01/16 02:30:29;;;;;;;;;;;;;;;;;;5032597;28;19953;-73
2024/01/16 02:32:55;;;;;;;;;;;;;;;;;;5045994;28;20003;-73
2024/01/16 02:35:20;;;;;;;;;;;;;;;;;;5047195;28;20425;-73
2024/01/16 02:37:45;;;;;;;;;;;;;;;;;;5038005;28;20791;-73
2024/01/16 02:40:10;;;;;;;;;;;;;;;;;;5036601;28;19959;-73
2024/01/16 02:42:37;;;;;;;;;;;;;;;;;;5049848;28;20339;-73
2024/01/16 02:45:03;;;;;;;;;;;;;;;;;;5035425;28;19920;-73
2024/01/16 02:47:28;;;;;;;;;;;;;;;;;;5037685;28;19917;-73
2024/01/16 02:49:53;;;;;;;;;;;;;;;;;;5030532;28;19924;-73
2024/01/16 02:52:18;;;;;;;;;;;;;;;;;;5038131;28;20293;-73
2024/01/16 02:54:44;;;;;;;;;;;;;;;;;;5033368;28;20274;-73
2024/01/16 02:57:09;;;;;;;;;;;;;;;;;;5039811;28;19913;-73
2024/01/16 02:59:34;;;;;;;;;;;;;;;;;;5032320;28;19917;-73
2024/01/16 03:01:59;;;;;;;;;;;;;;;;;;5029520;28;19913;-73
2024/01/16 03:04:24;;;;;;;;;;;;;;;;;;5038813;28;19923;-73
2024/01/16 03:06:49;;;;;;;;;;;;;;;;;;5048655;28;19923;-73
2024/01/16 03:09:14;;;;;;;;;;;;;;;;;;5033977;28;19948;-73
2024/01/16 03:11:40;;;;;;;;;;;;;;;;;;5041478;28;19943;-73
2024/01/16 03:14:05;;;;;;;;;;;;;;;;;;5045188;28;20277;-73
2024/01/16 03:16:30;;;;;;;;;;;;;;;;;;5031525;28;19917;-73
2024/01/16 03:18:55;;;;;;;;;;;;;;;;;;5042561;28;19923;-73
2024/01/16 03:21:20;;;;;;;;;;;;;;;;;;5041810;28;20250;-73
2024/01/16 03:23:45;;;;;;;;;;;;;;;;;;5030066;28;20005;-73
2024/01/16 03:26:10;;;;;;;;;;;;;;;;;;5037890;28;20012;-73
2024/01/16 03:28:35;;;;;;;;;;;;;;;;;;5039756;28;19952;-73
2024/01/16 03:31:00;;;;;;;;;;;;;;;;;;5041515;28;20000;-73
2024/01/16 03:33:25;;;;;;;;;;;;;;;;;;5033864;28;20008;-73
2024/01/16 03:35:51;;;;;;;;;;;;;;;;;;5041145;28;19917;-73
2024/01/16 03:38:16;;;;;;;;;;;;;;;;;;5031941;28;19952;-73
2024/01/16 03:40:41;;;;;;;;;;;;;;;;;;5040432;28;19920;-73
2024/01/16 03:43:06;;;;;;;;;;;;;;;;;;5043516;28;20014;-73
2024/01/16 03:45:31;;;;;;;;;;;;;;;;;;5044538;28;20457;-73
2024/01/16 03:47:56;;;;;;;;;;;;;;;;;;5038460;28;19962;-73
2024/01/16 03:50:21;;;;;;;;;;;;;;;;;;5037175;28;20386;-73
2024/01/16 03:52:46;;;;;;;;;;;;;;;;;;5037643;28;19917;-73
2024/01/16 03:55:11;;;;;;;;;;;;;;;;;;5034070;28;20263;-73
2024/01/16 03:57:36;;;;;;;;;;;;;;;;;;5022610;28;20358;-73
2024/01/16 04:00:02;;;;;;;;;;;;;;;;;;5029772;28;19924;-73
2024/01/16 04:02:27;;;;;;;;;;;;;;;;;;5032498;28;19913;-73
2024/01/16 04:04:52;;;;;;;;;;;;;;;;;;5037277;28;20197;-73
2024/01/16 04:07:17;;;;;;;;;;;;;;;;;;5044309;28;19925;-73
2024/01/16 04:09:42;;;;;;;;;;;;;;;;;;5031067;28;19913;-73
2024/01/16 04:12:08;;;;;;;;;;;;;;;;;;5036650;28;19913;-73
2024/01/16 04:14:33;;;;;;;;;;;;;;;;;;5033432;28;19913;-73
2024/01/16 04:16:58;;;;;;;;;;;;;;;;;;5043133;28;20336;-73
2024/01/16 04:19:23;;;;;;;;;;;;;;;;;;5036856;28;19912;-73
2024/01/16 04:21:48;;;;;;;;;;;;;;;;;;5040474;28;19913;-73
2024/01/16 04:24:13;;;;;;;;;;;;;;;;;;5033838;28;20386;-73
2024/01/16 04:26:39;;;;;;;;;;;;;;;;;;5046841;28;19920;-73
2024/01/16 04:29:04;;;;;;;;;;;;;;;;;;5039989;28;19921;-73
2024/01/16 04:31:29;;;;;;;;;;;;;;;;;;5048571;28;19936;-73
2024/01/16 04:33:54;;;;;;;;;;;;;;;;;;5037351;28;19967;-73
2024/01/16 04:36:19;;;;;;;;;;;;;;;;;;5043815;28;19920;-73
2024/01/16 04:38:44;;;;;;;;;;;;;;;;;;5032096;28;19913;-74
2024/01/16 04:41:10;;;;;;;;;;;;;;;;;;5047609;28;19917;-73
2024/01/16 04:43:35;;;;;;;;;;;;;;;;;;5047996;28;20288;-74
2024/01/16 04:46:00;;;;;;;;;;;;;;;;;;5036150;28;19940;-73
2024/01/16 04:48:25;;;;;;;;;;;;;;;;;;5027447;28;19929;-74
2024/01/16 04:50:50;;;;;;;;;;;;;;;;;;5037331;28;19944;-73
2024/01/16 04:53:15;;;;;;;;;;;;;;;;;;5043246;28;19919;-73
2024/01/16 04:55:41;;;;;;;;;;;;;;;;;;5039141;28;19913;-73
2024/01/16 04:58:07;;;;;;;;;;;;;;;;;;5029565;28;20359;-73
2024/01/16 05:00:32;;;;;;;;;;;;;;;;;;5029897;28;19967;-72
2024/01/16 05:02:57;;;;;;;;;;;;;;;;;;5043426;28;19917;-73
2024/01/16 05:05:22;;;;;;;;;;;;;;;;;;5036060;28;19920;-72
2024/01/16 05:07:47;;;;;;;;;;;;;;;;;;5042606;28;19956;-72
2024/01/16 05:10:12;;;;;;;;;;;;;;;;;;5045950;28;19948;-73
2024/01/16 05:12:38;;;;;;;;;;;;;;;;;;5037699;28;19917;-73
2024/01/16 05:15:03;;;;;;;;;;;;;;;;;;5032338;28;19921;-73
2024/01/16 05:17:28;;;;;;;;;;;;;;;;;;5040304;28;19928;-72
2024/01/16 05:19:53;;;;;;;;;;;;;;;;;;5034892;28;19916;-72
2024/01/16 05:22:18;;;;;;;;;;;;;;;;;;5051764;28;19913;-73
2024/01/16 05:24:43;;;;;;;;;;;;;;;;;;5051788;28;20315;-73
2024/01/16 05:27:09;;;;;;;;;;;;;;;;;;5050165;28;20050;-73
2024/01/16 05:29:34;;;;;;;;;;;;;;;;;;5045051;28;19912;-73
2024/01/16 05:31:59;;;;;;;;;;;;;;;;;;5040422;28;19913;-73
2024/01/16 05:34:24;;;;;;;;;;;;;;;;;;5046560;28;20005;-73
2024/01/16 05:36:49;;;;;;;;;;;;;;;;;;5051684;28;19974;-73
2024/01/16 05:39:14;;;;;;;;;;;;;;;;;;5044693;28;19920;-73
2024/01/16 05:41:39;;;;;;;;;;;;;;;;;;5051732;28;19944;-73
2024/01/16 05:44:04;;;;;;;;;;;;;;;;;;5040152;28;20444;-74
2024/01/16 05:46:30;;;;;;;;;;;;;;;;;;5035581;28;19917;-73
2024/01/16 05:48:55;;;;;;;;;;;;;;;;;;5039294;28;19929;-73
2024/01/16 05:51:20;;;;;;;;;;;;;;;;;;5038016;28;19951;-73
2024/01/16 05:53:46;;;;;;;;;;;;;;;;;;5041899;28;20007;-73
2024/01/16 05:56:11;;;;;;;;;;;;;;;;;;5037857;28;19920;-74
2024/01/16 05:58:38;;;;;;;;;;;;;;;;;;5031637;28;20312;-73
2024/01/16 06:01:03;;;;;;;;;;;;;;;;;;5041629;28;20427;-73
2024/01/16 06:03:29;;;;;;;;;;;;;;;;;;5037742;28;19924;-73
2024/01/16 06:05:54;;;;;;;;;;;;;;;;;;5042813;28;19959;-73
2024/01/16 06:08:20;;;;;;;;;;;;;;;;;;5038226;28;19920;-73
2024/01/16 06:10:45;;;;;;;;;;;;;;;;;;5033415;28;19917;-73
2024/01/16 06:13:10;;;;;;;;;;;;;;;;;;5045326;28;19962;-73
2024/01/16 06:15:35;;;;;;;;;;;;;;;;;;5035315;28;19917;-73
2024/01/16 06:18:00;;;;;;;;;;;;;;;;;;5032469;28;19916;-73
2024/01/16 06:20:25;;;;;;;;;;;;;;;;;;5036721;28;19960;-73
2024/01/16 06:22:50;;;;;;;;;;;;;;;;;;5041564;28;19993;-73
2024/01/16 06:25:15;;;;;;;;;;;;;;;;;;5044451;28;19912;-73
2024/01/16 06:27:41;;;;;;;;;;;;;;;;;;5042320;28;19917;-73
2024/01/16 06:30:08;;;;;;;;;;;;;;;;;;5039998;28;20282;-73
2024/01/16 06:32:33;;;;;;;;;;;;;;;;;;5039551;28;19995;-73
2024/01/16 06:34:58;;;;;;;;;;;;;;;;;;5050375;28;20001;-73
2024/01/16 06:37:23;;;;;;;;;;;;;;;;;;5037550;28;20308;-73
2024/01/16 06:39:48;;;;;;;;;;;;;;;;;;5039529;28;19925;-73
2024/01/16 06:42:13;;;;;;;;;;;;;;;;;;5023889;28;19924;-73
2024/01/16 06:44:38;;;;;;;;;;;;;;;;;;5025843;28;19917;-73
2024/01/16 06:47:04;;;;;;;;;;;;;;;;;;5034770;28;19916;-74
2024/01/16 06:49:29;;;;;;;;;;;;;;;;;;5028590;28;20575;-73
2024/01/16 06:51:54;;;;;;;;;;;;;;;;;;5032629;28;19960;-73
2024/01/16 06:54:20;;;;;;;;;;;;;;;;;;5025151;28;20398;-73
2024/01/16 06:56:46;;;;;;;;;;;;;;;;;;5026003;28;20356;-74
2024/01/16 06:59:11;;;;;;;;;;;;;;;;;;5020349;28;19917;-74
2024/01/16 07:01:36;;;;;;;;;;;;;;;;;;5026798;28;19956;-73
2024/01/16 07:04:01;;;;;;;;;;;;;;;;;;5026332;28;19925;-73
2024/01/16 07:06:26;;;;;;;;;;;;;;;;;;5024922;28;19928;-73
2024/01/16 07:08:51;;;;;;;;;;;;;;;;;;5025371;28;20424;-73
2024/01/16 07:11:17;;;;;;;;;;;;;;;;;;5027843;28;19917;-73
2024/01/16 07:13:42;;;;;;;;;;;;;;;;;;5029892;28;20378;-73
2024/01/16 07:16:07;;;;;;;;;;;;;;;;;;5029343;28;19970;-73
2024/01/16 07:18:33;;;;;;;;;;;;;;;;;;5045884;28;19967;-73
2024/01/16 07:20:58;;;;;;;;;;;;;;;;;;5030410;28;20242;-68
2024/01/16 07:23:23;;;;;;;;;;;;;;;;;;5029509;28;19974;-68
2024/01/16 07:25:48;;;;;;;;;;;;;;;;;;5037825;28;19916;-68
2024/01/16 07:28:14;;;;;;;;;;;;;;;;;;5029333;28;19917;-69
2024/01/16 07:30:39;;;;;;;;;;;;;;;;;;5029610;28;19913;-69
2024/01/16 07:33:05;;;;;;;;;;;;;;;;;;5030324;28;19940;-68
2024/01/16 07:35:30;;;;;;;;;;;;;;;;;;5038420;28;19913;-69
2024/01/16 07:37:55;;;;;;;;;;;;;;;;;;5029972;28;19919;-68
2024/01/16 07:40:20;;;;;;;;;;;;;;;;;;5029857;28;19920;-69
2024/01/16 07:42:45;;;;;;;;;;;;;;;;;;5030175;28;20358;-69
2024/01/16 07:45:11;;;;;;;;;;;;;;;;;;5046130;28;20395;-69
2024/01/16 07:47:36;;;;;;;;;;;;;;;;;;5029179;28;20352;-69
2024/01/16 07:50:01;;;;;;;;;;;;;;;;;;5028559;28;19913;-69
2024/01/16 07:52:26;;;;;;;;;;;;;;;;;;5027612;28;19924;-71
2024/01/16 07:54:51;;;;;;;;;;;;;;;;;;5027342;28;19960;-69
2024/01/16 07:57:16;;;;;;;;;;;;;;;;;;5044912;28;20004;-69
2024/01/16 07:59:41;;;;;;;;;;;;;;;;;;5028871;28;19913;-69
2024/01/16 08:02:08;;;;;;;;;;;;;;;;;;5026958;28;19921;-70
2024/01/16 08:04:33;;;;;;;;;;;;;;;;;;5029336;28;19972;-70
2024/01/16 08:06:58;;;;;;;;;;;;;;;;;;5027633;28;19963;-69
2024/01/16 08:09:24;;;;;;;;;;;;;;;;;;5027234;28;20031;-69
2024/01/16 08:11:49;;;;;;;;;;;;;;;;;;5028868;28;19913;-69
2024/01/16 08:14:14;;;;;;;;;;;;;;;;;;5025513;28;20358;-69
2024/01/16 08:16:39;;;;;;;;;;;;;;;;;;5031081;28;20313;-69
2024/01/16 08:19:04;;;;;;;;;;;;;;;;;;5030903;28;20406;-70
2024/01/16 08:21:29;;;;;;;;;;;;;;;;;;5029755;28;19971;-69
2024/01/16 08:23:55;;;;;;;;;;;;;;;;;;5046187;28;20034;-69
2024/01/16 08:26:20;;;;;;;;;;;;;;;;;;5037134;28;19935;-70
2024/01/16 08:28:45;;;;;;;;;;;;;;;;;;5028768;28;20369;-69
2024/01/16 08:31:10;;;;;;;;;;;;;;;;;;5038072;28;19917;-70
2024/01/16 08:33:35;;;;;;;;;;;;;;;;;;5043964;28;20251;-69
2024/01/16 08:36:01;;;;;;;;;;;;;;;;;;5040890;28;20380;-69
2024/01/16 08:38:26;;;;;;;;;;;;;;;;;;5042677;28;19919;-69
2024/01/16 08:40:51;;;;;;;;;;;;;;;;;;5031865;28;20050;-69
2024/01/16 08:43:16;;;;;;;;;;;;;;;;;;5040319;28;19913;-69
2024/01/16 08:45:41;;;;;;;;;;;;;;;;;;5034920;28;19983;-70
2024/01/16 08:48:06;;;;;;;;;;;;;;;;;;5034074;28;20055;-68
2024/01/16 08:50:31;;;;;;;;;;;;;;;;;;5036953;28;19913;-69
2024/01/16 08:52:56;;;;;;;;;;;;;;;;;;5037201;28;19913;-70
2024/01/16 08:55:21;;;;;;;;;;;;;;;;;;5033043;28;19913;-70
2024/01/16 08:57:46;;;;;;;;;;;;;;;;;;5040706;28;20370;-70
2024/01/16 09:00:12;;;;;;;;;;;;;;;;;;5031393;28;19982;-71
2024/01/16 09:02:37;;;;;;;;;;;;;;;;;;5032702;28;19913;-70
2024/01/16 09:05:02;;;;;;;;;;;;;;;;;;5040641;28;19955;-69
2024/01/16 09:07:27;;;;;;;;;;;;;;;;;;5033899;28;19948;-70
2024/01/16 09:09:53;;;;;;;;;;;;;;;;;;5055687;28;19920;-69
2024/01/16 09:12:18;;;;;;;;;;;;;;;;;;5040179;28;19913;-70
2024/01/16 09:14:43;;;;;;;;;;;;;;;;;;5039213;28;20007;-69
2024/01/16 09:17:08;;;;;;;;;;;;;;;;;;5054361;28;19998;-70
2024/01/16 09:19:33;;;;;;;;;;;;;;;;;;5032293;28;20058;-69
2024/01/16 09:21:58;;;;;;;;;;;;;;;;;;5049512;28;20360;-69
2024/01/16 09:24:23;;;;;;;;;;;;;;;;;;5045161;28;19931;-71
2024/01/16 09:26:48;;;;;;;;;;;;;;;;;;5055672;28;19913;-70
2024/01/16 09:29:14;;;;;;;;;;;;;;;;;;5032176;28;19920;-70
2024/01/16 09:31:39;;;;;;;;;;;;;;;;;;5038534;28;19917;-70
2024/01/16 09:34:04;;;;;;;;;;;;;;;;;;5041406;28;19960;-69
2024/01/16 09:36:29;;;;;;;;;;;;;;;;;;5037072;28;20370;-69
2024/01/16 09:38:54;;;;;;;;;;;;;;;;;;5034729;28;20392;-69
2024/01/16 09:41:19;;;;;;;;;;;;;;;;;;5044034;28;19912;-69
2024/01/16 09:43:45;;;;;;;;;;;;;;;;;;5046169;28;19921;-69
2024/01/16 09:46:10;;;;;;;;;;;;;;;;;;5036218;28;19942;-69
2024/01/16 09:48:35;;;;;;;;;;;;;;;;;;5034254;28;20338;-70
2024/01/16 09:51:00;;;;;;;;;;;;;;;;;;5041097;28;20352;-69
2024/01/16 09:53:25;;;;;;;;;;;;;;;;;;5036069;28;19947;-69
2024/01/16 09:55:51;;;;;;;;;;;;;;;;;;5039684;28;20339;-69
2024/01/16 09:58:16;;;;;;;;;;;;;;;;;;5031045;28;19966;-69
2024/01/16 10:00:41;;;;;;;;;;;;;;;;;;5037445;28;20381;-70
2024/01/16 10:03:06;;;;;;;;;;;;;;;;;;5033007;28;19917;-69
2024/01/16 10:05:31;;;;;;;;;;;;;;;;;;5043296;28;19913;-69
2024/01/16 10:07:57;;;;;;;;;;;;;;;;;;5044396;28;20150;-69
2024/01/16 10:10:22;;;;;;;;;;;;;;;;;;5031059;28;19913;-69
2024/01/16 10:12:47;;;;;;;;;;;;;;;;;;5047377;28;20006;-70
2024/01/16 10:15:12;;;;;;;;;;;;;;;;;;5046402;28;19978;-69
2024/01/16 10:17:38;;;;;;;;;;;;;;;;;;5030221;28;20349;-70
2024/01/16 10:20:06;;;;;;;;;;;;;;;;;;5035811;28;20007;-70
2024/01/16 10:22:31;;;;;;;;;;;;;;;;;;5054912;28;19916;-69
2024/01/16 10:24:56;;;;;;;;;;;;;;;;;;5052487;28;19913;-70
2024/01/16 10:27:21;;;;;;;;;;;;;;;;;;5057098;28;20445;-70
2024/01/16 10:29:46;;;;;;;;;;;;;;;;;;5049650;28;19913;-69
2024/01/16 10:32:11;;;;;;;;;;;;;;;;;;5048701;28;19952;-71
2024/01/16 10:34:36;;;;;;;;;;;;;;;;;;5051421;28;20007;-69
2024/01/16 10:37:01;;;;;;;;;;;;;;;;;;5058272;28;19919;-70
2024/01/16 10:39:26;;;;;;;;;;;;;;;;;;5057654;28;19948;-70
2024/01/16 10:41:52;;;;;;;;;;;;;;;;;;5047801;28;20000;-69
2024/01/16 10:44:17;;;;;;;;;;;;;;;;;;5035034;28;20380;-70
2024/01/16 10:46:42;;;;;;;;;;;;;;;;;;5036424;28;19924;-69
2024/01/16 10:49:07;;;;;;;;;;;;;;;;;;5038686;28;19928;-70
2024/01/16 10:51:32;;;;;;;;;;;;;;;;;;5042402;28;19913;-69
2024/01/16 10:53:57;;;;;;;;;;;;;;;;;;5030114;28;19952;-71
2024/01/16 10:56:22;;;;;;;;;;;;;;;;;;5038176;28;19953;-70
2024/01/16 10:58:47;;;;;;;;;;;;;;;;;;5029194;28;20008;-70
2024/01/16 11:01:12;;;;;;;;;;;;;;;;;;5037928;28;19917;-69
2024/01/16 11:03:37;;;;;;;;;;;;;;;;;;5042977;28;19917;-69
2024/01/16 11:06:03;;;;;;;;;;;;;;;;;;5038491;28;19944;-69
2024/01/16 11:08:30;;;;;;;;;;;;;;;;;;5040551;28;19916;-71
2024/01/16 11:10:56;;;;;;;;;;;;;;;;;;5046621;28;19965;-70
2024/01/16 11:13:21;;;;;;;;;;;;;;;;;;5045528;28;20289;-69
2024/01/16 11:15:46;;;;;;;;;;;;;;;;;;5030432;28;19913;-69
2024/01/16 11:18:11;;;;;;;;;;;;;;;;;;5037311;28;19975;-69
2024/01/16 11:20:36;;;;;;;;;;;;;;;;;;5035315;28;20483;-69
2024/01/16 11:23:01;;;;;;;;;;;;;;;;;;5034415;28;19999;-69
2024/01/16 11:25:26;;;;;;;;;;;;;;;;;;5037877;28;19919;-71
2024/01/16 11:27:52;;;;;;;;;;;;;;;;;;5037022;28;19917;-70
2024/01/16 11:30:17;;;;;;;;;;;;;;;;;;5043922;28;20366;-68
2024/01/16 11:32:42;;;;;;;;;;;;;;;;;;5043804;28;19963;-70
2024/01/16 11:35:07;;;;;;;;;;;;;;;;;;5038970;28;20483;-70
2024/01/16 11:37:33;;;;;;;;;;;;;;;;;;5049011;28;20289;-70
2024/01/16 11:39:58;;;;;;;;;;;;;;;;;;5034396;28;19925;-71
2024/01/16 11:42:23;;;;;;;;;;;;;;;;;;5031948;28;19951;-70
2024/01/16 11:44:50;;;;;;;;;;;;;;;;;;5044891;28;19912;-68
2024/01/16 11:47:16;;;;;;;;;;;;;;;;;;5029948;28;19917;-70
2024/01/16 11:49:41;;;;;;;;;;;;;;;;;;5032733;28;19967;-68
2024/01/16 11:52:06;;;;;;;;;;;;;;;;;;5037274;28;19917;-70
2024/01/16 11:54:31;;;;;;;;;;;;;;;;;;5041865;28;19913;-69
2024/01/16 11:56:56;;;;;;;;;;;;;;;;;;5041518;28;20799;-68
2024/01/16 11:59:22;;;;;;;;;;;;;;;;;;5031597;28;19925;-68
2024/01/16 12:01:47;;;;;;;;;;;;;;;;;;5035025;28;19917;-70
2024/01/16 12:04:12;;;;;;;;;;;;;;;;;;5037596;28;20063;-69
2024/01/16 12:06:37;;;;;;;;;;;;;;;;;;5028600;28;20322;-69
2024/01/16 12:09:03;;;;;;;;;;;;;;;;;;5031815;28;19943;-69
2024/01/16 12:11:28;;;;;;;;;;;;;;;;;;5040897;28;19916;-68
2024/01/16 12:13:53;;;;;;;;;;;;;;;;;;5040663;28;19921;-69
2024/01/16 12:16:18;;;;;;;;;;;;;;;;;;5037197;28;20578;-68
2024/01/16 12:18:45;;;;;;;;;;;;;;;;;;5031969;28;19964;-68
2024/01/16 12:21:10;;;;;;;;;;;;;;;;;;5035634;28;20338;-68
2024/01/16 12:23:35;;;;;;;;;;;;;;;;;;5029344;28;19978;-69
2024/01/16 12:26:03;;;;;;;;;;;;;;;;;;5028645;28;19927;-68
2024/01/16 12:28:28;;;;;;;;;;;;;;;;;;5060274;28;19917;-69
2024/01/16 12:30:53;;;;;;;;;;;;;;;;;;5047090;28;19968;-68
2024/01/16 12:33:18;;;;;;;;;;;;;;;;;;5050616;28;19916;-69
2024/01/16 12:35:46;;;;;;;;;;;;;;;;;;5054645;28;19916;-69
2024/01/16 12:38:12;;;;;;;;;;;;;;;;;;5046555;28;19923;-68
2024/01/16 12:40:38;;;;;;;;;;;;;;;;;;5030661;28;19995;-68
2024/01/16 12:43:04;;;;;;;;;;;;;;;;;;5029049;28;19963;-68
2024/01/16 12:45:29;;;;;;;;;;;;;;;;;;5040919;28;20386;-69
2024/01/16 12:47:57;;;;;;;;;;;;;;;;;;5028863;28;20370;-68
2024/01/16 12:50:22;;;;;;;;;;;;;;;;;;5030050;28;19913;-68
2024/01/16 12:52:47;;;;;;;;;;;;;;;;;;5034637;28;19959;-69
2024/01/16 12:55:13;;;;;;;;;;;;;;;;;;5028592;28;19928;-68
2024/01/16 12:57:38;;;;;;;;;;;;;;;;;;5028450;28;19913;-68
2024/01/16 13:00:04;;;;;;;;;;;;;;;;;;5027874;28;20305;-69
2024/01/16 13:02:30;;;;;;;;;;;;;;;;;;5027662;28;19924;-68
2024/01/16 13:04:55;;;;;;;;;;;;;;;;;;5036546;28;20000;-69
2024/01/16 13:07:21;;;;;;;;;;;;;;;;;;5046937;28;19912;-69
2024/01/16 13:09:46;;;;;;;;;;;;;;;;;;5044227;28;19917;-67
2024/01/16 13:12:11;;;;;;;;;;;;;;;;;;5039398;28;19931;-69
2024/01/16 13:14:37;;;;;;;;;;;;;;;;;;5038037;28;19913;-69
2024/01/16 13:17:02;;;;;;;;;;;;;;;;;;5043059;28;19917;-69
2024/01/16 13:19:33;;;;;;;;;;;;;;;;;;5031959;28;19913;-69
2024/01/16 13:21:58;;;;;;;;;;;;;;;;;;5045843;28;20015;-69
2024/01/16 13:24:23;;;;;;;;;;;;;;;;;;5041801;28;20035;-69
2024/01/16 13:26:48;;;;;;;;;;;;;;;;;;5048815;28;20003;-69
2024/01/16 13:29:13;;;;;;;;;;;;;;;;;;5044861;28;20270;-69
2024/01/16 13:31:38;;;;;;;;;;;;;;;;;;5040928;28;20128;-69
2024/01/16 13:34:04;;;;;;;;;;;;;;;;;;5031979;28;19913;-69
2024/01/16 13:36:29;;;;;;;;;;;;;;;;;;5051268;28;19940;-69
2024/01/16 13:38:54;;;;;;;;;;;;;;;;;;5048693;28;19912;-69
2024/01/16 13:41:19;;;;;;;;;;;;;;;;;;5033815;28;20366;-69
2024/01/16 13:43:44;;;;;;;;;;;;;;;;;;5035408;28;20278;-69
2024/01/16 13:46:10;;;;;;;;;;;;;;;;;;5035005;28;19929;-69
2024/01/16 13:48:35;;;;;;;;;;;;;;;;;;5047746;28;19924;-69
2024/01/16 13:51:00;;;;;;;;;;;;;;;;;;5031845;28;20252;-69
2024/01/16 13:53:25;;;;;;;;;;;;;;;;;;5042034;28;19920;-69
2024/01/16 13:55:50;;;;;;;;;;;;;;;;;;5051995;28;19958;-69
2024/01/16 13:58:15;;;;;;;;;;;;;;;;;;5034155;28;19913;-69
2024/01/16 14:00:40;;;;;;;;;;;;;;;;;;5035040;28;19917;-69
2024/01/16 14:03:06;;;;;;;;;;;;;;;;;;5032830;28;19917;-71
2024/01/16 14:05:31;;;;;;;;;;;;;;;;;;5030858;28;20071;-69
2024/01/16 14:07:56;;;;;;;;;;;;;;;;;;5044735;28;20133;-68
2024/01/16 14:10:21;;;;;;;;;;;;;;;;;;5036687;28;19925;-69
2024/01/16 14:12:46;;;;;;;;;;;;;;;;;;5038999;28;19913;-69
2024/01/16 14:15:24;;;;;;;;;;;;;;;;;;5030586;28;20340;-69
2024/01/16 14:17:49;;;;;;;;;;;;;;;;;;5036939;28;19921;-71
2024/01/16 14:20:14;;;;;;;;;;;;;;;;;;5043553;28;20420;-70
2024/01/16 14:22:39;;;;;;;;;;;;;;;;;;5042708;28;19916;-69
2024/01/16 14:25:10;;;;;;;;;;;;;;;;;;5044061;28;19913;-71
2024/01/16 14:27:36;;;;;;;;;;;;;;;;;;5033701;28;19912;-70
2024/01/16 14:30:01;;;;;;;;;;;;;;;;;;5032334;28;19982;-72
2024/01/16 14:32:26;;;;;;;;;;;;;;;;;;5032389;28;19920;-70
2024/01/16 14:34:51;;;;;;;;;;;;;;;;;;5043920;28;19919;-70
2024/01/16 14:37:16;;;;;;;;;;;;;;;;;;5050005;28;19912;-70
2024/01/16 14:39:41;;;;;;;;;;;;;;;;;;5027922;28;19924;-70
2024/01/16 14:42:07;;;;;;;;;;;;;;;;;;5045617;28;19917;-70
2024/01/16 14:44:32;;;;;;;;;;;;;;;;;;5042019;28;19913;-69
2024/01/16 14:46:58;;;;;;;;;;;;;;;;;;5040358;28;19959;-70
2024/01/16 14:49:23;;;;;;;;;;;;;;;;;;5036860;28;19978;-70
2024/01/16 14:51:48;;;;;;;;;;;;;;;;;;5044570;28;19991;-70
2024/01/16 14:54:14;;;;;;;;;;;;;;;;;;5050250;28;19920;-69
2024/01/16 14:56:39;;;;;;;;;;;;;;;;;;5049277;28;19913;-69
2024/01/16 14:59:04;;;;;;;;;;;;;;;;;;5048163;28;20439;-70
2024/01/16 15:01:29;;;;;;;;;;;;;;;;;;5039294;28;20003;-70
2024/01/16 15:03:54;;;;;;;;;;;;;;;;;;5031222;28;19917;-70
2024/01/16 15:06:19;;;;;;;;;;;;;;;;;;5046439;28;20373;-70
2024/01/16 15:08:44;;;;;;;;;;;;;;;;;;5034679;28;19956;-70
2024/01/16 15:11:10;;;;;;;;;;;;;;;;;;5046912;28;19955;-69
2024/01/16 15:13:35;;;;;;;;;;;;;;;;;;5035670;28;19967;-69
2024/01/16 15:16:00;;;;;;;;;;;;;;;;;;5030562;28;19919;-69
2024/01/16 15:18:26;;;;;;;;;;;;;;;;;;5038481;28;19913;-70
2024/01/16 15:20:51;;;;;;;;;;;;;;;;;;5032044;28;19913;-70
2024/01/16 15:23:16;;;;;;;;;;;;;;;;;;5046458;28;19924;-69
2024/01/16 15:25:41;;;;;;;;;;;;;;;;;;5031319;28;20342;-71
2024/01/16 15:28:06;;;;;;;;;;;;;;;;;;5044626;28;19924;-70
2024/01/16 15:30:35;;;;;;;;;;;;;;;;;;5029501;28;20477;-70
2024/01/16 15:33:00;;;;;;;;;;;;;;;;;;5030530;28;20342;-70
2024/01/16 15:35:26;;;;;;;;;;;;;;;;;;5029283;28;19921;-69
2024/01/16 15:37:51;;;;;;;;;;;;;;;;;;5038396;28;19921;-69
2024/01/16 15:40:16;;;;;;;;;;;;;;;;;;5042715;28;19916;-70
2024/01/16 15:42:41;;;;;;;;;;;;;;;;;;5037663;28;19921;-69
2024/01/16 15:45:06;;;;;;;;;;;;;;;;;;5035435;28;20016;-69
2024/01/16 15:47:31;;;;;;;;;;;;;;;;;;5038297;28;19920;-69
2024/01/16 15:49:57;;;;;;;;;;;;;;;;;;5029979;28;20340;-69
2024/01/16 15:52:22;;;;;;;;;;;;;;;;;;5028520;28;19921;-69
2024/01/16 15:54:47;;;;;;;;;;;;;;;;;;5034325;28;19921;-69
2024/01/16 15:57:12;;;;;;;;;;;;;;;;;;5040809;28;19924;-69
2024/01/16 15:59:38;;;;;;;;;;;;;;;;;;5029526;28;19917;-69
2024/01/16 16:02:03;;;;;;;;;;;;;;;;;;5045112;28;19975;-69
2024/01/16 16:04:28;;;;;;;;;;;;;;;;;;5051036;28;19916;-68
2024/01/16 16:06:53;;;;;;;;;;;;;;;;;;5054533;28;19985;-68
2024/01/16 16:09:19;;;;;;;;;;;;;;;;;;5049375;28;20427;-68
2024/01/16 16:11:44;;;;;;;;;;;;;;;;;;5048900;28;19924;-68
2024/01/16 16:14:09;;;;;;;;;;;;;;;;;;5056382;28;19916;-70
2024/01/16 16:16:34;;;;;;;;;;;;;;;;;;5059845;28;19927;-68
2024/01/16 17:05:24;;;;;;;;;;;;;;;;;;5015928;28;19940;-68
2024/01/16 17:07:49;;;;;;;;;;;;;;;;;;5032274;28;19917;-68
2024/01/16 17:10:15;;;;;;;;;;;;;;;;;;5032211;28;19963;-68
2024/01/16 17:12:40;;;;;;;;;;;;;;;;;;5032602;28;20500;-69
2024/01/16 17:15:05;;;;;;;;;;;;;;;;;;5031829;28;19921;-68
2024/01/16 17:17:32;;;;;;;;;;;;;;;;;;5029332;28;20306;-69